Time;durP1;ratioP1;P1;durP2;ratioP2;P2;SDS_P1;SDS_P2;PMS_P1;PMS_P2;Temp;Humidity;BMP_temperature;BMP_pressure;BME280_temperature;BME280_humidity;BME280_pressure;Samples;Min_cycle;Max_cycle;Signal;HPM_P1;HPM_P2
2024/03/13 00:05:20;;;;;;;;;;;;;;;;;;;;;
2024/03/13 00:08:09;;;;;;;;;0.00;0.00;;;;;17.58;100.00;101469.03;4764565;29;57203;-88
2024/03/13 00:10:53;;;;;;;;;;;;;;;;;;;;;
2024/03/13 00:25:11;;;;;;;;;0.00;0.00;;;;;17.53;100.00;101476.31;4665742;30;28683;-90
2024/03/13 00:28:11;;;;;;;;;0.00;0.00;;;;;17.51;100.00;101486.03;4714568;30;27926;-90
2024/03/13 00:30:44;;;;;;;;;0.00;0.00;;;;;17.49;100.00;101472.09;4663280;30;28789;-90
2024/03/13 00:34:00;;;;;;;;;2.00;2.00;;;;;17.48;100.00;101466.91;4648863;30;28414;-90
2024/03/13 00:38:04;;;;;;;;;;;;;;;;;;;;;
2024/03/13 00:40:55;;;;;;;;;0.00;0.00;;;;;17.44;100.00;101462.69;4740533;29;28605;-89
2024/03/13 00:44:13;;;;;;;;;0.00;0.00;;;;;17.46;100.00;101459.09;4705583;30;28420;-90
2024/03/13 00:47:14;;;;;;;;;;;;;;;;;;;;;
2024/03/13 00:49:55;;;;;;;;;;;;;;;;;;;;;
2024/03/13 00:56:14;;;;;;;;;;;;;;;;;;;;;
2024/03/13 01:03:57;;;;;;;;;0.00;0.00;;;;;17.32;100.00;101477.28;4644571;30;28544;-90
2024/03/13 01:06:47;;;;;;;;;0.00;0.00;;;;;17.18;100.00;101483.19;4633783;30;28579;-90
2024/03/13 01:09:48;;;;;;;;;0.00;0.00;;;;;17.16;100.00;101485.88;4635437;30;27983;-91
2024/03/13 01:13:53;;;;;;;;;;;;;;;;;;;;;
2024/03/13 01:15:53;;;;;;;;;0.00;0.00;;;;;17.20;100.00;101487.44;4607449;30;28549;-90
2024/03/13 01:22:56;;;;;;;;;0.00;0.00;;;;;17.26;100.00;101491.56;4624145;30;28525;-90
2024/03/13 01:29:08;;;;;;;;;0.00;0.00;;;;;17.24;100.00;101485.53;4608675;30;28690;-89
2024/03/13 01:32:16;;;;;;;;;3.00;3.00;;;;;17.27;100.00;101495.03;4570582;31;28577;-90
2024/03/13 01:35:03;;;;;;;;;0.00;0.00;;;;;17.29;100.00;101487.94;4607206;30;28790;-89
2024/03/13 02:04:33;;;;;;;;;;;;;;;;;;;;;
2024/03/13 02:08:06;;;;;;;;;0.00;0.00;;;;;17.14;100.00;101476.31;4548803;31;57004;-91
2024/03/13 02:11:46;;;;;;;;;;;;;;;;;;;;;
2024/03/13 02:14:34;;;;;;;;;0.00;0.00;;;;;17.12;100.00;101481.66;4528839;31;28641;-90
2024/03/13 02:24:13;;;;;;;;;0.00;0.00;;;;;17.17;100.00;101463.03;4464273;31;28445;-91
2024/03/13 02:30:35;;;;;;;;;0.00;0.00;;;;;17.12;100.00;101476.38;4479205;31;28457;-92
2024/03/13 02:34:04;;;;;;;;;;;;;;;;;;;;;
2024/03/13 02:36:51;;;;;;;;;0.00;0.00;;;;;17.02;100.00;101456.69;4494306;31;28381;-90
2024/03/13 02:39:30;;;;;;;;;0.00;0.00;;;;;17.05;100.00;101455.69;4495964;31;27940;-92
2024/03/13 02:42:34;;;;;;;;;;;;;;;;;;;;;
2024/03/13 02:45:07;;;;;;;;;0.00;0.00;;;;;16.96;100.00;101455.19;4478616;31;54690;-92
2024/03/13 02:48:17;;;;;;;;;;;;;;;;;;;;;
2024/03/13 02:56:36;;;;;;;;;0.00;0.00;;;;;16.80;100.00;101459.38;4546177;31;36219;-93
2024/03/13 02:58:45;;;;;;;;;0.00;0.00;;;;;16.80;100.00;101464.63;4526759;31;28374;-92
2024/03/13 03:02:55;;;;;;;;;0.00;0.00;;;;;16.79;100.00;101455.91;4559949;31;28553;-92
2024/03/13 03:05:10;;;;;;;;;;;;;;;;;;;;;
2024/03/13 03:07:38;;;;;;;;;0.00;0.00;;;;;16.65;100.00;101460.91;4612669;30;58436;-91
2024/03/13 03:10:11;;;;;;;;;0.00;0.00;;;;;16.63;100.00;101468.00;4647135;30;28484;-91
2024/03/13 03:19:40;;;;;;;;;0.00;0.00;;;;;16.58;100.00;101460.28;4646805;30;28545;-88
2024/03/13 03:22:15;;;;;;;;;0.00;0.00;;;;;16.59;100.00;101463.78;4669100;30;38464;-90
2024/03/13 03:25:15;;;;;;;;;;;;;;;;;;;;;
2024/03/13 03:28:51;;;;;;;;;;;;;;;;;;;;;
2024/03/13 03:36:44;;;;;;;;;0.00;0.00;;;;;16.51;100.00;101474.63;5190296;24;28860;-92
2024/03/13 03:39:19;;;;;;;;;0.00;0.00;;;;;16.54;100.00;101471.00;4758987;29;28638;-91
2024/03/13 03:45:37;;;;;;;;;0.00;0.00;;;;;16.54;100.00;101473.63;4686497;30;28643;-92
2024/03/13 03:48:11;;;;;;;;;0.00;0.00;;;;;16.59;100.00;101471.69;4684097;30;28393;-92
2024/03/13 04:06:00;;;;;;;;;;;;;;;;;;;;;
2024/03/13 04:08:25;;;;;;;;;;;;;;;;;;;;;
2024/03/13 04:11:08;;;;;;;;;;;;;;;;;;;;;
2024/03/13 04:17:09;;;;;;;;;0.00;0.00;;;;;16.15;100.00;101469.13;4613518;30;28394;-88
2024/03/13 04:20:55;;;;;;;;;;;;;;;;;;;;;
2024/03/13 04:35:51;;;;;;;;;;;;;;;;;;;;;
2024/03/13 06:40:15;;;;;;;;;0.00;0.00;;;;;16.76;100.00;101524.38;6260524;22;439041;-84
2024/03/13 06:42:51;;;;;;;;;0.00;0.00;;;;;16.77;100.00;101525.22;6275904;22;46954;-84
2024/03/13 06:45:23;;;;;;;;;0.00;0.00;;;;;16.91;100.00;101527.31;6251173;22;45371;-83
2024/03/13 06:47:48;;;;;;;;;0.00;0.00;;;;;16.93;100.00;101536.84;6304748;22;45384;-81
2024/03/13 06:50:25;;;;;;;;;0.00;0.00;;;;;17.01;100.00;101521.59;6302923;22;45188;-84
2024/03/13 06:52:51;;;;;;;;;0.00;0.00;;;;;17.07;100.00;101522.22;6278557;22;46884;-85
2024/03/13 06:55:16;;;;;;;;;0.00;0.00;;;;;17.11;100.00;101524.66;6271797;22;45252;-83
2024/03/13 06:57:49;;;;;;;;;0.00;0.00;;;;;17.14;100.00;101531.56;6304555;22;45258;-82
2024/03/13 07:00:16;;;;;;;;;0.00;0.00;;;;;17.09;100.00;101534.41;6278149;22;45545;-83
2024/03/13 07:02:44;;;;;;;;;0.00;0.00;;;;;17.15;100.00;101530.66;6302641;22;45377;-84
2024/03/13 07:05:12;;;;;;;;;0.00;0.00;;;;;17.18;100.00;101534.00;6305303;22;45223;-83
2024/03/13 07:07:40;;;;;;;;;0.00;0.00;;;;;17.17;100.00;101537.53;6304975;22;45184;-83
2024/03/13 07:10:10;;;;;;;;;0.00;0.00;;;;;17.16;100.00;101543.75;6303380;22;45440;-84
2024/03/13 07:12:41;;;;;;;;;0.00;0.00;;;;;17.07;100.00;101535.38;6304418;22;46403;-83
2024/03/13 07:15:24;;;;;;;;;0.00;0.00;;;;;17.05;100.00;101537.22;6303557;22;45216;-84
2024/03/13 07:17:50;;;;;;;;;0.00;0.00;;;;;17.03;100.00;101529.41;6281477;22;45343;-85
2024/03/13 07:20:15;;;;;;;;;0.00;0.00;;;;;17.06;100.00;101534.53;6304278;22;45360;-83
2024/03/13 07:22:41;;;;;;;;;0.00;0.00;;;;;17.09;100.00;101544.94;6277226;22;46973;-83
2024/03/13 07:25:09;;;;;;;;;0.00;0.00;;;;;17.12;100.00;101542.16;6277364;22;45388;-84
2024/03/13 07:27:35;;;;;;;;;0.00;0.00;;;;;17.16;100.00;101538.50;6270383;22;45666;-85
2024/03/13 07:30:18;;;;;;;;;0.00;0.00;;;;;17.25;100.00;101549.50;6269923;22;45415;-85
2024/03/13 07:32:44;;;;;;;;;0.00;0.00;;;;;17.24;100.00;101548.66;6272066;22;45248;-86
2024/03/13 07:35:15;;;;;;;;;0.00;0.00;;;;;17.26;100.00;101548.59;6303841;22;45162;-84
2024/03/13 07:37:40;;;;;;;;;0.00;0.00;;;;;17.30;100.00;101550.19;6303120;22;45302;-84
2024/03/13 07:40:09;;;;;;;;;0.00;0.00;;;;;17.29;100.00;101551.09;6303218;22;45673;-85
2024/03/13 07:42:34;;;;;;;;;0.00;0.00;;;;;17.34;100.00;101552.59;6304274;22;45356;-83
2024/03/13 07:44:59;;;;;;;;;0.00;0.00;;;;;17.39;100.00;101549.75;6274587;22;45271;-84
2024/03/13 07:47:25;;;;;;;;;0.00;0.00;;;;;17.43;100.00;101553.97;6302972;22;47585;-83
2024/03/13 07:49:53;;;;;;;;;0.00;0.00;;;;;17.41;100.00;101547.91;6303131;22;45373;-82
2024/03/13 07:52:24;;;;;;;;;0.00;0.00;;;;;17.41;100.00;101548.75;6275391;22;47981;-86
2024/03/13 07:54:49;;;;;;;;;0.00;0.00;;;;;17.48;100.00;101552.00;6277539;22;45271;-84
2024/03/13 07:57:15;;;;;;;;;0.00;0.00;;;;;17.49;100.00;101556.31;6303522;22;45362;-82
2024/03/13 07:59:40;;;;;;;;;0.00;0.00;;;;;17.49;100.00;101556.31;6303293;22;45311;-82
2024/03/13 08:02:07;;;;;;;;;0.00;0.00;;;;;17.55;100.00;101558.69;6305751;22;45111;-83
2024/03/13 08:04:36;;;;;;;;;0.00;0.00;;;;;17.51;100.00;101556.25;6308785;22;44969;-83
2024/03/13 08:07:01;;;;;;;;;0.00;0.00;;;;;17.57;100.00;101556.84;6289626;22;44157;-83
2024/03/13 08:09:29;;;;;;;;;0.00;0.00;;;;;17.65;100.00;101558.28;6309895;22;44500;-82
2024/03/13 08:11:55;;;;;;;;;0.00;0.00;;;;;17.75;100.00;101564.81;6277535;22;45603;-81
2024/03/13 08:14:22;;;;;;;;;0.00;0.00;;;;;17.80;100.00;101568.09;6306565;22;44859;-80
2024/03/13 08:16:47;;;;;;;;;0.00;0.00;;;;;17.89;100.00;101564.22;6305946;22;45026;-81
2024/03/13 08:19:13;;;;;;;;;0.00;0.00;;;;;17.86;100.00;101565.19;6250047;22;45466;-80
2024/03/13 08:21:39;;;;;;;;;0.00;0.00;;;;;17.82;100.00;101571.50;6305188;22;63837;-80
2024/03/13 08:24:06;;;;;;;;;0.00;0.00;;;;;17.87;100.00;101564.28;6304566;22;44742;-80
2024/03/13 08:26:31;;;;;;;;;0.00;0.00;;;;;17.77;100.00;101573.50;6309480;22;45064;-79
2024/03/13 08:28:56;;;;;;;;;0.00;0.00;;;;;17.86;100.00;101575.72;6254585;22;63219;-80
2024/03/13 08:31:23;;;;;;;;;0.00;0.00;;;;;17.88;100.00;101591.47;6305408;22;45094;-79
2024/03/13 08:33:48;;;;;;;;;0.00;0.00;;;;;17.86;100.00;101574.88;6302097;22;45339;-80
2024/03/13 08:36:14;;;;;;;;;0.00;0.00;;;;;17.99;100.00;101584.78;6301951;22;45244;-79
2024/03/13 08:38:40;;;;;;;;;0.00;0.00;;;;;18.21;100.00;101581.13;6302882;22;45233;-82
2024/03/13 08:41:06;;;;;;;;;0.00;0.00;;;;;18.23;100.00;101581.06;6301784;22;46827;-80
2024/03/13 08:43:31;;;;;;;;;0.00;0.00;;;;;18.52;100.00;101588.41;6274470;22;45153;-80
2024/03/13 08:45:57;;;;;;;;;0.00;0.00;;;;;18.61;100.00;101591.53;6303609;22;45127;-81
2024/03/13 08:48:25;;;;;;;;;0.00;0.00;;;;;18.62;100.00;101595.88;6302206;22;45319;-80
2024/03/13 08:50:51;;;;;;;;;0.00;0.00;;;;;18.57;100.00;101611.91;6274684;22;45432;-79
2024/03/13 08:53:16;;;;;;;;;0.75;0.00;;;;;18.65;100.00;101609.78;6301504;22;45334;-81
2024/03/13 08:55:42;;;;;;;;;0.00;0.00;;;;;18.60;100.00;101603.88;6249666;22;54965;-79
2024/03/13 08:58:07;;;;;;;;;0.00;0.00;;;;;18.55;100.00;101605.88;6305656;22;55644;-80
2024/03/13 09:00:32;;;;;;;;;0.00;0.00;;;;;18.50;100.00;101607.88;6302242;22;46073;-80
2024/03/13 09:02:59;;;;;;;;;0.00;0.00;;;;;18.61;100.00;101602.94;6276132;22;45189;-79
2024/03/13 09:05:28;;;;;;;;;0.00;0.00;;;;;18.64;100.00;101615.13;6305533;22;45057;-79
2024/03/13 09:07:54;;;;;;;;;0.00;0.00;;;;;18.56;100.00;101616.34;6274785;22;45079;-80
2024/03/13 09:10:19;;;;;;;;;0.00;0.00;;;;;18.46;100.00;101607.19;6303709;22;45162;-80
2024/03/13 09:12:46;;;;;;;;;0.00;0.00;;;;;18.64;100.00;101609.84;6302281;22;45115;-80
2024/03/13 09:15:11;;;;;;;;;0.00;0.00;;;;;18.73;100.00;101610.22;6302155;22;45259;-81
2024/03/13 09:17:38;;;;;;;;;0.00;0.00;;;;;18.73;100.00;101606.75;6303760;22;45241;-80
2024/03/13 09:20:03;;;;;;;;;0.00;0.00;;;;;18.75;100.00;101613.66;6278505;22;45416;-80
2024/03/13 09:22:29;;;;;;;;;4.00;3.00;;;;;18.50;100.00;101607.88;6302003;22;45258;-79
2024/03/13 09:24:54;;;;;;;;;0.00;0.00;;;;;18.74;100.00;101605.84;6304976;22;55902;-79
2024/03/13 09:27:20;;;;;;;;;0.00;0.00;;;;;18.66;100.00;101608.81;6314183;22;44104;-79
2024/03/13 09:29:45;;;;;;;;;0.00;0.00;;;;;18.86;100.00;101609.66;6321655;22;46309;-79
2024/03/13 09:32:11;;;;;;;;;0.00;0.00;;;;;18.89;100.00;101598.97;6320709;22;44783;-79
2024/03/13 09:34:36;;;;;;;;;0.00;0.00;;;;;18.88;100.00;101599.91;6289169;22;58019;-79
2024/03/13 09:37:04;;;;;;;;;0.00;0.00;;;;;19.03;100.00;101603.53;6296984;22;43763;-79
2024/03/13 09:39:31;;;;;;;;;0.00;0.00;;;;;19.23;100.00;101595.47;6300727;22;39349;-78
2024/03/13 09:41:57;;;;;;;;;0.00;0.00;;;;;19.33;100.00;101603.75;6299957;22;27971;-79
2024/03/13 09:44:23;;;;;;;;;0.00;0.00;;;;;19.40;100.00;101607.78;6324638;22;35740;-79
2024/03/13 09:46:51;;;;;;;;;0.00;0.00;;;;;19.59;100.00;101597.09;6298016;22;38984;-79
2024/03/13 09:49:18;;;;;;;;;0.00;0.00;;;;;19.77;100.00;101594.44;6324620;22;43848;-80
2024/03/13 09:51:45;;;;;;;;;0.00;0.00;;;;;19.85;100.00;101603.63;6300027;22;37722;-80
2024/03/13 09:54:11;;;;;;;;;0.50;0.50;;;;;20.00;100.00;101599.34;6297393;22;36626;-80
2024/03/13 09:56:38;;;;;;;;;0.00;0.00;;;;;20.16;100.00;101601.13;6302215;22;39345;-80
2024/03/13 09:59:05;;;;;;;;;0.00;0.00;;;;;20.22;100.00;101593.69;6301219;22;27918;-79
2024/03/13 10:01:35;;;;;;;;;0.00;0.00;;;;;20.20;100.00;101586.78;6324281;22;39170;-81
2024/03/13 10:04:10;;;;;;;;;0.00;0.00;;;;;20.07;100.00;101605.13;6327066;22;35224;-80
2024/03/13 10:06:39;;;;;;;;;0.00;0.00;;;;;19.86;100.00;101605.38;6298362;22;28380;-79
2024/03/13 10:09:12;;;;;;;;;0.00;0.00;;;;;19.76;100.00;101604.16;6322942;22;28424;-80
2024/03/13 10:11:41;;;;;;;;;0.00;0.00;;;;;19.83;100.00;101604.66;6301976;22;32602;-79
2024/03/13 10:14:07;;;;;;;;;3.00;3.00;;;;;19.98;100.00;101610.91;6325044;22;35972;-80
2024/03/13 10:16:34;;;;;;;;;0.00;0.00;;;;;19.89;100.00;101607.84;6300387;22;27834;-79
2024/03/13 10:19:00;;;;;;;;;0.00;0.00;;;;;20.05;100.00;101613.13;6308953;22;37695;-80
2024/03/13 10:21:27;;;;;;;;;0.00;0.00;;;;;20.22;100.00;101608.69;6302157;22;28416;-80
2024/03/13 10:23:54;;;;;;;;;0.00;0.00;;;;;20.36;100.00;101607.94;6300736;22;38487;-79
2024/03/13 10:26:21;;;;;;;;;0.00;0.00;;;;;20.55;100.00;101605.09;6327576;22;28399;-79
2024/03/13 10:28:48;;;;;;;;;0.00;0.00;;;;;20.48;100.00;101596.66;6326662;22;35743;-80
2024/03/13 10:31:14;;;;;;;;;0.00;0.00;;;;;20.97;100.00;101593.84;6329633;22;33252;-80
2024/03/13 10:33:40;;;;;;;;;0.00;0.00;;;;;20.90;100.00;101594.31;6327953;22;32230;-80
2024/03/13 10:36:07;;;;;;;;;0.00;0.00;;;;;20.24;100.00;101596.25;6327908;22;42229;-81
2024/03/13 10:38:37;;;;;;;;;0.00;0.00;;;;;20.45;100.00;101600.34;6324421;22;30900;-80
2024/03/13 10:41:03;;;;;;;;;0.00;0.00;;;;;20.34;100.00;101593.94;6324718;22;28342;-77
2024/03/13 10:43:31;;;;;;;;;0.00;0.00;;;;;19.94;100.00;101585.59;6325154;22;28206;-78
2024/03/13 10:45:57;;;;;;;;;0.00;0.00;;;;;19.84;100.00;101590.53;6325438;22;28389;-81
2024/03/13 10:48:24;;;;;;;;;0.00;0.00;;;;;19.65;100.00;101585.34;6323761;22;40339;-80
2024/03/13 10:50:50;;;;;;;;;0.00;0.00;;;;;19.49;100.00;101583.53;6326586;22;28339;-82
2024/03/13 10:53:15;;;;;;;;;0.00;0.00;;;;;19.17;100.00;101589.63;6297034;22;32138;-84
2024/03/13 10:55:44;;;;;;;;;0.00;0.00;;;;;19.15;100.00;101595.84;6305604;22;38356;-83
2024/03/13 10:58:33;;;;;;;;;0.00;0.00;;;;;19.25;100.00;101583.03;6328132;22;33160;-83
2024/03/13 11:01:01;;;;;;;;;0.00;0.00;;;;;19.61;100.00;101576.72;6328764;22;27898;-83
2024/03/13 11:03:30;;;;;;;;;0.00;0.00;;;;;19.67;100.00;101575.56;6323656;22;36249;-82
2024/03/13 11:06:05;;;;;;;;;0.00;0.00;;;;;19.84;100.00;101582.63;6328827;22;29447;-83
2024/03/13 11:08:33;;;;;;;;;0.00;0.00;;;;;19.95;100.00;101582.88;6302197;22;39035;-83
2024/03/13 11:11:09;;;;;;;;;0.00;0.00;;;;;20.07;100.00;101584.81;6309741;22;36214;-84
2024/03/13 11:13:53;;;;;;;;;0.00;0.00;;;;;20.44;100.00;101582.75;6277379;22;40877;-83
2024/03/13 11:16:31;;;;;;;;;0.00;0.00;;;;;20.61;100.00;101583.63;6298481;22;38524;-83
2024/03/13 11:19:01;;;;;;;;;0.00;0.00;;;;;20.63;100.00;101581.72;6320620;22;29241;-83
2024/03/13 11:22:08;;;;;;;;;0.00;0.00;;;;;20.65;100.00;101580.72;6344282;22;32462;-83
2024/03/13 11:24:43;;;;;;;;;0.00;0.00;;;;;20.53;100.00;101588.47;6299367;22;28393;-84
2024/03/13 11:27:15;;;;;;;;;0.00;0.00;;;;;20.35;100.00;101587.72;6304523;22;41149;-82
2024/03/13 11:29:49;;;;;;;;;0.00;0.00;;;;;20.22;100.00;101583.13;6324838;22;43604;-81
2024/03/13 11:32:15;;;;;;;;;0.00;0.00;;;;;20.28;100.00;101584.56;6328918;22;32752;-81
2024/03/13 11:34:41;;;;;;;;;0.00;0.00;;;;;20.31;100.00;101579.94;6324539;22;44126;-80
2024/03/13 11:37:11;;;;;;;;;0.00;0.00;;;;;20.48;100.00;101579.00;6324316;22;43327;-81
2024/03/13 11:39:49;;;;;;;;;0.00;0.00;;;;;20.51;100.00;101591.19;6297375;22;44538;-81
2024/03/13 11:42:14;;;;;;;;;0.00;0.00;;;;;20.48;100.00;101580.78;6298661;22;41871;-82
2024/03/13 11:44:54;;;;;;;;;0.00;0.00;;;;;20.42;100.00;101582.00;6327245;22;40539;-83
2024/03/13 11:47:24;;;;;;;;;0.00;0.00;;;;;20.48;100.00;101575.50;6328406;22;37351;-83
2024/03/13 11:49:59;;;;;;;;;0.00;0.00;;;;;20.49;100.00;101578.06;6323642;22;35869;-82
2024/03/13 11:52:25;;;;;;;;;0.00;0.00;;;;;20.56;100.00;101578.56;6326775;22;35431;-83
2024/03/13 11:54:50;;;;;;;;;0.00;0.00;;;;;20.65;100.00;101575.44;6327322;22;40242;-82
2024/03/13 11:57:16;;;;;;;;;0.00;0.00;;;;;20.62;100.00;101570.31;6329445;22;27791;-81
2024/03/13 11:59:56;;;;;;;;;0.00;0.00;;;;;20.55;100.00;101573.38;6328230;22;27870;-82
2024/03/13 12:02:27;;;;;;;;;0.00;0.00;;;;;20.29;100.00;101565.97;6328092;22;38349;-82
2024/03/13 12:05:10;;;;;;;;;0.00;0.00;;;;;20.50;100.00;101561.28;6299292;22;39199;-83
2024/03/13 12:07:45;;;;;;;;;0.00;0.00;;;;;20.63;100.00;101555.28;6292577;22;43460;-83
2024/03/13 12:10:17;;;;;;;;;0.00;0.00;;;;;20.63;100.00;101553.47;6331686;22;42243;-83
2024/03/13 12:12:42;;;;;;;;;0.00;0.00;;;;;20.83;100.00;101544.38;6274155;22;35767;-84
2024/03/13 12:15:08;;;;;;;;;0.00;0.00;;;;;21.12;100.00;101546.22;6329351;22;39287;-82
2024/03/13 12:17:33;;;;;;;;;0.00;0.00;;;;;21.39;100.00;101541.03;6299028;22;43615;-83
2024/03/13 12:19:59;;;;;;;;;0.00;0.00;;;;;21.51;100.00;101550.03;6304464;22;44171;-82
2024/03/13 12:22:24;;;;;;;;;0.00;0.00;;;;;21.30;100.00;101541.59;6350161;22;23466;-82
2024/03/13 12:24:51;;;;;;;;;0.00;0.00;;;;;21.59;100.00;101543.31;6297704;22;41021;-83
2024/03/13 12:27:24;;;;;;;;;0.00;0.00;;;;;21.33;100.00;101547.56;6328002;22;43851;-83
2024/03/13 12:29:59;;;;;;;;;0.00;0.00;;;;;21.17;100.00;101544.16;6299733;22;38763;-84
2024/03/13 12:32:24;;;;;;;;;0.00;0.00;;;;;20.53;100.00;101546.16;6304114;22;38971;-84
2024/03/13 12:34:57;;;;;;;;;3.00;3.00;;;;;20.99;100.00;101536.38;6328121;22;41038;-84
2024/03/13 12:37:28;;;;;;;;;0.00;0.00;;;;;20.60;100.00;101537.81;6301372;22;34555;-85
2024/03/13 12:39:53;;;;;;;;;0.00;0.00;;;;;20.43;100.00;101541.41;6330686;22;26696;-83
2024/03/13 12:42:19;;;;;;;;;0.00;0.00;;;;;20.09;100.00;101553.88;6271842;22;53752;-83
2024/03/13 12:44:45;;;;;;;;;0.00;0.00;;;;;20.00;100.00;101540.31;6301067;22;36451;-82
2024/03/13 12:50:51;;;;;;;;;0.00;0.00;;;;;20.32;100.00;101546.47;6269531;22;41867;-83
2024/03/13 12:53:20;;;;;;;;;0.00;0.00;;;;;20.06;100.00;101530.28;6268633;22;39859;-87
2024/03/13 12:56:02;;;;;;;;;0.00;0.00;;;;;19.98;100.00;101524.56;6242475;22;41526;-87
2024/03/13 12:58:30;;;;;;;;;0.00;0.00;;;;;20.10;100.00;101518.59;6262384;22;27851;-86
2024/03/13 13:01:02;;;;;;;;;0.00;0.00;;;;;20.48;100.00;101522.59;6262580;22;43419;-88
2024/03/13 13:03:36;;;;;;;;;0.00;0.00;;;;;20.58;100.00;101518.50;6262895;22;43367;-88
2024/03/13 13:06:13;;;;;;;;;0.00;0.00;;;;;20.59;100.00;101519.34;6235939;22;42434;-85
2024/03/13 13:08:45;;;;;;;;;0.00;0.00;;;;;20.34;100.00;101512.84;6232911;22;28653;-86
2024/03/13 13:11:15;;;;;;;;;0.00;0.00;;;;;20.53;100.00;101511.78;6264032;22;29965;-88
2024/03/13 13:14:25;;;;;;;;;0.00;0.00;;;;;20.20;100.00;101518.06;6236301;22;37924;-89
2024/03/13 13:16:28;;;;;;;;;0.00;0.00;;;;;20.41;100.00;101500.09;6233562;22;39715;-86
2024/03/13 13:18:57;;;;;;;;;0.00;0.00;;;;;20.37;100.00;101514.44;6259012;22;30385;-86
2024/03/13 13:21:23;;;;;;;;;0.00;0.00;;;;;20.13;100.00;101506.97;6260802;22;43264;-83
2024/03/13 13:23:54;;;;;;;;;0.00;0.00;;;;;19.91;100.00;101505.56;6253405;22;58202;-83
2024/03/13 13:26:22;;;;;;;;;0.00;0.00;;;;;19.82;100.00;101505.25;6288036;22;43876;-83
2024/03/13 13:28:58;;;;;;;;;0.00;0.00;;;;;20.07;100.00;101508.19;6323624;22;27780;-83
2024/03/13 13:31:24;;;;;;;;;0.00;0.00;;;;;19.71;100.00;101513.72;6327347;22;28634;-86
2024/03/13 13:33:49;;;;;;;;;0.00;0.00;;;;;19.66;100.00;101508.69;6326927;22;28276;-84
2024/03/13 13:36:15;;;;;;;;;0.00;0.00;;;;;19.76;100.00;101502.91;6327770;22;27789;-86
2024/03/13 13:38:41;;;;;;;;;0.00;0.00;;;;;19.56;100.00;101498.69;6299115;22;37317;-84
2024/03/13 13:41:06;;;;;;;;;0.00;0.00;;;;;19.78;100.00;101509.84;6295494;22;28945;-82
2024/03/13 13:43:38;;;;;;;;;0.00;0.00;;;;;19.84;100.00;101506.84;6325939;22;40124;-85
2024/03/13 13:46:08;;;;;;;;;0.00;0.00;;;;;19.96;100.00;101504.44;6291762;22;44202;-84
2024/03/13 13:48:35;;;;;;;;;0.00;0.00;;;;;20.00;100.00;101500.69;6312180;22;44835;-84
2024/03/13 13:51:08;;;;;;;;;0.00;0.00;;;;;19.66;100.00;101498.13;6295779;22;43698;-85
2024/03/13 13:53:37;;;;;;;;;0.00;0.00;;;;;19.57;100.00;101497.78;6248824;22;41100;-86
2024/03/13 13:56:06;;;;;;;;;0.00;0.00;;;;;19.80;100.00;101491.25;6300730;22;41771;-85
2024/03/13 13:58:37;;;;;;;;;0.00;0.00;;;;;19.90;100.00;101492.44;6325825;22;29746;-86
2024/03/13 14:01:03;;;;;;;;;0.00;0.00;;;;;19.91;100.00;101487.06;6330528;22;28730;-84
2024/03/13 14:03:28;;;;;;;;;0.00;0.00;;;;;19.82;100.00;101503.44;6339808;22;28052;-84
2024/03/13 14:05:54;;;;;;;;;0.00;0.00;;;;;19.83;100.00;101497.19;6324249;22;41829;-82
2024/03/13 14:09:02;;;;;;;;;0.00;0.00;;;;;19.98;100.00;101492.00;6330524;22;42118;-87
2024/03/13 14:11:28;;;;;;;;;0.00;0.00;;;;;19.80;100.00;101504.44;6160580;23;25059;-86
2024/03/13 14:13:53;;;;;;;;;0.00;0.00;;;;;19.67;100.00;101489.25;6137474;23;44780;-84
2024/03/13 14:16:19;;;;;;;;;0.00;0.00;;;;;19.71;100.00;101500.50;6160249;23;55609;-84
2024/03/13 14:18:44;;;;;;;;;0.00;0.00;;;;;19.67;100.00;101485.78;6156288;23;44738;-86
2024/03/13 14:21:17;;;;;;;;;0.00;0.00;;;;;20.07;100.00;101489.69;6153374;23;44867;-84
2024/03/13 14:23:50;;;;;;;;;0.00;0.00;;;;;20.16;100.00;101487.47;6157333;23;45227;-83
2024/03/13 14:26:15;;;;;;;;;0.00;0.00;;;;;20.20;100.00;101491.63;6156145;23;45215;-83
2024/03/13 14:28:46;;;;;;;;;0.00;0.00;;;;;20.21;100.00;101485.44;6151413;23;44961;-83
2024/03/13 14:31:13;;;;;;;;;0.00;0.00;;;;;20.14;100.00;101487.56;6155842;23;45171;-82
2024/03/13 14:33:39;;;;;;;;;0.00;0.00;;;;;20.07;100.00;101492.31;6158185;23;44895;-82
2024/03/13 14:36:07;;;;;;;;;0.00;0.00;;;;;19.98;100.00;101492.00;6154786;23;45124;-83
2024/03/13 14:38:32;;;;;;;;;0.00;0.00;;;;;19.62;100.00;101490.47;6158627;23;44984;-82
2024/03/13 14:41:02;;;;;;;;;0.00;0.00;;;;;19.96;100.00;101483.31;6158580;23;61290;-83
2024/03/13 14:43:31;;;;;;;;;0.00;0.00;;;;;20.05;100.00;101485.44;6149018;23;45218;-83
2024/03/13 14:45:57;;;;;;;;;0.00;0.00;;;;;20.17;100.00;101484.75;6126029;23;45197;-83
2024/03/13 14:48:28;;;;;;;;;0.00;0.00;;;;;20.21;100.00;101494.19;6212733;22;45477;-87
2024/03/13 14:51:23;;;;;;;;;0.00;0.00;;;;;20.20;100.00;101471.34;6305732;22;61737;-83
2024/03/13 14:53:48;;;;;;;;;0.00;0.00;;;;;20.33;100.00;101478.56;6299922;22;45191;-83
2024/03/13 14:56:13;;;;;;;;;0.00;0.00;;;;;20.56;100.00;101480.72;6303767;22;44583;-83
2024/03/13 14:58:39;;;;;;;;;0.00;0.00;;;;;20.75;100.00;101471.72;6303447;22;45027;-84
2024/03/13 15:01:06;;;;;;;;;0.00;0.00;;;;;20.98;100.00;101475.59;6306206;22;54418;-83
2024/03/13 15:03:43;;;;;;;;;0.00;0.00;;;;;21.06;100.00;101481.25;6306475;22;45113;-84
2024/03/13 15:06:15;;;;;;;;;0.00;0.00;;;;;21.34;100.00;101471.63;6332370;22;44263;-83
2024/03/13 15:08:40;;;;;;;;;0.00;0.00;;;;;21.18;100.00;101466.44;6317866;22;44480;-83
2024/03/13 15:11:12;;;;;;;;;0.00;0.00;;;;;21.20;100.00;101469.84;6304694;22;45762;-83
2024/03/13 15:13:47;;;;;;;;;0.00;0.00;;;;;21.05;100.00;101472.47;6307373;22;44869;-84
2024/03/13 15:16:20;;;;;;;;;0.00;0.00;;;;;21.19;100.00;101474.28;6281251;22;45184;-84
2024/03/13 15:18:45;;;;;;;;;0.00;0.00;;;;;20.88;100.00;101468.22;6259422;22;44382;-85
2024/03/13 15:21:12;;;;;;;;;0.00;0.00;;;;;20.80;100.00;101470.50;6256066;22;47668;-84
2024/03/13 15:23:40;;;;;;;;;0.00;0.00;;;;;21.05;100.00;101469.00;6248788;22;45059;-84
2024/03/13 15:26:05;;;;;;;;;0.00;0.00;;;;;21.50;100.00;101456.50;6276574;22;45268;-84
2024/03/13 15:28:34;;;;;;;;;0.00;0.00;;;;;21.96;100.00;101463.28;6285141;22;55653;-85
2024/03/13 15:31:01;;;;;;;;;0.00;0.00;;;;;22.74;100.00;101455.41;6294070;22;43260;-85
2024/03/13 15:33:33;;;;;;;;;0.00;0.00;;;;;23.01;100.00;101465.03;6295070;22;39963;-85
2024/03/13 15:35:59;;;;;;;;;0.00;0.00;;;;;22.61;100.00;101460.69;6270983;22;28489;-85
2024/03/13 15:38:24;;;;;;;;;0.00;0.00;;;;;22.47;100.00;101457.28;6295107;22;28172;-85
2024/03/13 15:40:52;;;;;;;;;0.00;0.00;;;;;22.22;100.00;101456.25;6261620;22;28675;-84
2024/03/13 15:43:25;;;;;;;;;0.00;0.00;;;;;22.10;100.00;101457.06;6228577;22;27681;-85
2024/03/13 15:45:56;;;;;;;;;0.00;0.00;;;;;21.97;100.00;101452.59;6259964;22;38422;-85
2024/03/13 15:48:22;;;;;;;;;0.00;0.00;;;;;21.89;100.00;101449.56;6298442;22;28439;-84
2024/03/13 15:50:58;;;;;;;;;0.00;0.00;;;;;21.87;100.00;101451.47;6270522;22;30113;-82
2024/03/13 15:53:23;;;;;;;;;0.00;0.00;;;;;21.61;100.00;101455.81;6294685;22;28319;-80
2024/03/13 15:55:53;;;;;;;;;0.00;0.00;;;;;21.46;100.00;101455.00;6295872;22;40118;-83
2024/03/13 15:58:18;;;;;;;;;0.00;0.00;;;;;21.40;100.00;101450.91;6271798;22;42476;-84
2024/03/13 16:00:44;;;;;;;;;0.00;0.00;;;;;21.29;100.00;101449.88;6297904;22;35859;-85
2024/03/13 16:03:09;;;;;;;;;0.00;0.00;;;;;21.26;100.00;101449.09;6292470;22;28397;-82
2024/03/13 16:05:35;;;;;;;;;0.00;0.00;;;;;21.31;100.00;101442.69;6309891;22;35931;-84
2024/03/13 16:08:22;;;;;;;;;0.00;0.00;;;;;21.15;100.00;101435.69;6290821;22;28592;-85
2024/03/13 16:10:49;;;;;;;;;0.00;0.00;;;;;21.15;100.00;101448.09;6292179;22;28636;-83
2024/03/13 16:13:31;;;;;;;;;0.00;0.00;;;;;20.99;100.00;101437.63;6293662;22;28318;-85
2024/03/13 16:15:56;;;;;;;;;0.00;0.00;;;;;20.94;100.00;101444.97;6298848;22;35270;-84
2024/03/13 16:18:22;;;;;;;;;0.00;0.00;;;;;20.85;100.00;101428.72;6295036;22;39188;-86
2024/03/13 16:20:48;;;;;;;;;0.00;0.00;;;;;20.78;100.00;101437.13;6295994;22;40058;-83